createdAt,value
2022-10-09T00:00:37.317Z,8.08
2022-10-09T00:01:37.353Z,8.08
2022-10-09T00:02:37.476Z,8.08
2022-10-09T00:03:37.422Z,8.08
2022-10-09T00:04:37.452Z,8.08
2022-10-09T00:05:37.579Z,8.08
2022-10-09T00:06:37.514Z,8.08
2022-10-09T00:07:37.550Z,8.08
2022-10-09T00:08:37.581Z,8.08
2022-10-09T00:09:37.615Z,8.08
2022-10-09T00:10:37.650Z,8.02
2022-10-09T00:11:37.685Z,8.02
2022-10-09T00:12:37.725Z,8.02
2022-10-09T00:13:37.764Z,8.02
2022-10-09T00:14:37.801Z,8.02
2022-10-09T00:15:37.844Z,8.02
2022-10-09T00:16:37.919Z,8.02
2022-10-09T00:17:37.915Z,8.02
2022-10-09T00:18:37.946Z,8.02
2022-10-09T00:19:37.981Z,8.02
2022-10-09T00:20:38.012Z,8.02
2022-10-09T00:21:38.052Z,8.02
2022-10-09T00:22:38.086Z,8.02
2022-10-09T00:23:38.123Z,8.02
2022-10-09T00:24:38.160Z,8.02
2022-10-09T00:25:38.195Z,8.02
2022-10-09T00:26:38.233Z,7.95
2022-10-09T00:27:38.266Z,7.95
2022-10-09T00:28:38.808Z,7.95
2022-10-09T00:29:38.325Z,7.95
2022-10-09T00:30:38.385Z,7.95
2022-10-09T00:31:38.397Z,7.94
2022-10-09T00:32:38.433Z,7.93
2022-10-09T00:33:38.467Z,7.93
2022-10-09T00:34:38.502Z,7.93
2022-10-09T00:35:38.536Z,7.92
2022-10-09T00:36:38.571Z,7.84
2022-10-09T00:37:38.585Z,7.83
2022-10-09T00:38:38.619Z,7.81
2022-10-09T00:39:38.659Z,7.81
2022-10-09T00:40:38.691Z,7.8
2022-10-09T00:41:38.727Z,7.78
2022-10-09T00:42:38.760Z,7.71
2022-10-09T00:43:38.793Z,7.7
2022-10-09T00:44:38.826Z,7.7
2022-10-09T00:45:38.855Z,7.64
2022-10-09T00:46:38.877Z,7.66
2022-10-09T00:47:38.919Z,7.66
2022-10-09T00:48:38.952Z,7.64
2022-10-09T00:49:38.982Z,7.57
2022-10-09T00:50:39.011Z,7.57
2022-10-09T00:51:39.051Z,7.58
2022-10-09T00:52:39.097Z,7.58
2022-10-09T00:53:39.135Z,7.51
2022-10-09T00:54:39.174Z,7.51
2022-10-09T00:55:39.200Z,7.49
2022-10-09T00:56:39.230Z,7.5
2022-10-09T00:57:39.266Z,7.49
2022-10-09T00:58:39.294Z,7.42
2022-10-09T00:59:39.330Z,7.42
2022-10-09T01:00:39.366Z,7.41
2022-10-09T01:01:39.436Z,7.34
2022-10-09T01:02:39.504Z,7.33
2022-10-09T01:03:39.477Z,7.33
2022-10-09T01:04:39.499Z,7.33
2022-10-09T01:05:39.535Z,7.33
2022-10-09T01:06:39.566Z,7.26
2022-10-09T01:07:39.603Z,7.27
2022-10-09T01:08:39.639Z,7.28
2022-10-09T01:09:39.667Z,7.29
2022-10-09T01:10:39.705Z,7.29
2022-10-09T01:11:39.738Z,7.3
2022-10-09T01:12:39.773Z,7.24
2022-10-09T01:13:39.805Z,7.24
2022-10-09T01:14:39.842Z,7.22
2022-10-09T01:15:39.944Z,7.22
2022-10-09T01:16:39.925Z,7.21
2022-10-09T01:17:39.953Z,7.2
2022-10-09T01:18:39.985Z,7.19
2022-10-09T01:19:40.021Z,7.18
2022-10-09T01:20:40.064Z,7.11
2022-10-09T01:21:40.097Z,7.09
2022-10-09T01:22:40.137Z,7.09
2022-10-09T01:23:40.174Z,7.02
2022-10-09T01:24:40.219Z,7
2022-10-09T01:25:40.247Z,7
2022-10-09T01:26:40.276Z,6.99
2022-10-09T01:27:40.318Z,6.92
2022-10-09T01:28:40.388Z,6.91
2022-10-09T01:29:40.390Z,6.9
2022-10-09T01:30:40.474Z,6.84
2022-10-09T01:31:40.457Z,6.85
2022-10-09T01:32:40.494Z,6.85
2022-10-09T01:33:40.522Z,6.8
2022-10-09T01:34:40.538Z,6.82
2022-10-09T01:35:40.571Z,6.82
2022-10-09T01:36:40.599Z,6.76
2022-10-09T01:37:40.635Z,6.75
2022-10-09T01:38:40.675Z,6.68
2022-10-09T01:39:40.709Z,6.67
2022-10-09T01:40:40.740Z,6.66
2022-10-09T01:41:40.770Z,6.67
2022-10-09T01:42:40.809Z,6.61
2022-10-09T01:43:40.843Z,6.63
2022-10-09T01:44:40.885Z,6.65
2022-10-09T01:45:40.926Z,6.66
2022-10-09T01:46:41.024Z,6.65
2022-10-09T01:47:40.995Z,6.58
2022-10-09T01:48:41.029Z,6.57
2022-10-09T01:49:41.058Z,6.56
2022-10-09T01:50:41.089Z,6.57
2022-10-09T01:51:41.133Z,6.57
2022-10-09T01:52:41.600Z,6.56
2022-10-09T01:53:41.206Z,6.56
2022-10-09T01:54:41.239Z,6.56
2022-10-09T01:55:41.270Z,6.55
2022-10-09T01:56:41.299Z,6.54
2022-10-09T01:57:41.332Z,6.53
2022-10-09T01:58:41.366Z,6.44
2022-10-09T01:59:41.398Z,6.44
2022-10-09T02:00:41.429Z,6.45
2022-10-09T02:01:41.539Z,6.46
2022-10-09T02:02:41.560Z,6.4
2022-10-09T02:03:41.546Z,6.47
2022-10-09T02:04:41.582Z,6.41
2022-10-09T02:05:41.621Z,6.41
2022-10-09T02:06:41.663Z,6.38
2022-10-09T02:07:41.694Z,6.35
2022-10-09T02:08:41.732Z,6.25
2022-10-09T02:09:41.781Z,6.26
2022-10-09T02:10:41.812Z,6.2
2022-10-09T02:11:41.845Z,6.21
2022-10-09T02:12:41.872Z,6.21
2022-10-09T02:13:41.904Z,6.19
2022-10-09T02:14:41.944Z,6.12
2022-10-09T02:15:42.040Z,6.13
2022-10-09T02:16:42.010Z,6.14
2022-10-09T02:17:42.050Z,6.15
2022-10-09T02:18:42.085Z,6.1
2022-10-09T02:19:42.110Z,6.11
2022-10-09T02:20:42.150Z,6.13
2022-10-09T02:21:46.202Z,6.14
2022-10-09T02:22:42.213Z,6.09
2022-10-09T02:23:42.246Z,6.09
2022-10-09T02:24:42.285Z,6.07
2022-10-09T02:25:42.323Z,6.05
2022-10-09T02:26:42.355Z,6.04
2022-10-09T02:27:42.392Z,6.04
2022-10-09T02:28:45.842Z,6.04
2022-10-09T02:29:42.452Z,5.97
2022-10-09T02:30:42.481Z,5.97
2022-10-09T02:31:42.603Z,5.97
2022-10-09T02:32:42.547Z,5.96
2022-10-09T02:33:42.589Z,5.95
2022-10-09T02:34:42.620Z,5.96
2022-10-09T02:35:42.654Z,5.97
2022-10-09T02:36:42.686Z,5.97
2022-10-09T02:37:42.720Z,5.97
2022-10-09T02:38:42.755Z,5.91
2022-10-09T02:39:42.792Z,5.91
2022-10-09T02:40:42.824Z,5.91
2022-10-09T02:41:42.858Z,5.9
2022-10-09T02:42:42.894Z,5.85
2022-10-09T02:43:42.927Z,5.87
2022-10-09T02:44:42.959Z,5.88
2022-10-09T02:45:42.997Z,5.9
2022-10-09T02:46:43.114Z,5.9
2022-10-09T02:47:43.075Z,5.89
2022-10-09T02:48:43.111Z,5.89
2022-10-09T02:49:43.149Z,5.89
2022-10-09T02:50:43.183Z,5.9
2022-10-09T02:51:43.221Z,5.9
2022-10-09T02:52:43.252Z,5.9
2022-10-09T02:53:43.294Z,5.9
2022-10-09T02:54:43.320Z,5.9
2022-10-09T02:55:43.355Z,5.91
2022-10-09T02:56:43.390Z,5.9
2022-10-09T02:57:43.426Z,5.88
2022-10-09T02:58:43.453Z,5.86
2022-10-09T02:59:43.492Z,5.85
2022-10-09T03:00:43.528Z,5.78
2022-10-09T03:01:43.679Z,5.8
2022-10-09T03:02:43.750Z,5.81
2022-10-09T03:03:43.638Z,5.81
2022-10-09T03:04:43.670Z,5.8
2022-10-09T03:05:43.706Z,5.8
2022-10-09T03:06:43.740Z,5.8
2022-10-09T03:07:43.777Z,5.74
2022-10-09T03:08:43.812Z,5.74
2022-10-09T03:09:43.839Z,5.8
2022-10-09T03:10:43.877Z,5.72
2022-10-09T03:11:43.913Z,5.72
2022-10-09T03:12:43.949Z,5.72
2022-10-09T03:13:43.985Z,5.73
2022-10-09T03:14:44.014Z,5.73
2022-10-09T03:15:44.133Z,5.74
2022-10-09T03:16:44.086Z,5.75
2022-10-09T03:17:44.117Z,5.75
2022-10-09T03:18:44.149Z,5.77
2022-10-09T03:19:44.177Z,5.76
2022-10-09T03:20:44.204Z,5.75
2022-10-09T03:21:44.232Z,5.74
2022-10-09T03:22:44.264Z,5.75
2022-10-09T03:23:44.301Z,5.75
2022-10-09T03:24:44.341Z,5.76
2022-10-09T03:25:44.370Z,5.76
2022-10-09T03:26:44.404Z,5.75
2022-10-09T03:27:44.438Z,5.74
2022-10-09T03:28:44.563Z,5.72
2022-10-09T03:29:44.507Z,5.65
2022-10-09T03:30:44.548Z,5.65
2022-10-09T03:31:52.363Z,5.65
2022-10-09T03:32:44.619Z,5.66
2022-10-09T03:33:44.652Z,5.66
2022-10-09T03:34:44.683Z,5.67
2022-10-09T03:35:44.717Z,5.67
2022-10-09T03:36:44.747Z,5.67
2022-10-09T03:37:44.789Z,5.66
2022-10-09T03:38:44.818Z,5.58
2022-10-09T03:39:44.850Z,5.56
2022-10-09T03:40:44.889Z,5.56
2022-10-09T03:41:44.919Z,5.56
2022-10-09T03:42:44.958Z,5.55
2022-10-09T03:43:44.999Z,5.55
2022-10-09T03:44:45.036Z,5.54
2022-10-09T03:45:45.069Z,5.48
2022-10-09T03:46:45.213Z,5.47
2022-10-09T03:47:45.142Z,5.47
2022-10-09T03:48:45.182Z,5.47
2022-10-09T03:49:45.211Z,5.47
2022-10-09T03:50:45.249Z,5.46
2022-10-09T03:51:45.285Z,5.47
2022-10-09T03:52:45.393Z,5.4
2022-10-09T03:53:45.348Z,5.4
2022-10-09T03:54:45.389Z,5.41
2022-10-09T03:55:45.422Z,5.4
2022-10-09T03:56:45.456Z,5.38
2022-10-09T03:57:45.488Z,5.38
2022-10-09T03:58:45.522Z,5.31
2022-10-09T03:59:45.557Z,5.29
2022-10-09T04:00:45.697Z,5.3
2022-10-09T04:01:45.627Z,5.3
2022-10-09T04:02:45.824Z,5.3
2022-10-09T04:03:45.701Z,5.3
2022-10-09T04:04:45.738Z,5.31
2022-10-09T04:05:45.781Z,5.31
2022-10-09T04:06:45.830Z,5.31
2022-10-09T04:07:45.858Z,5.26
2022-10-09T04:08:45.898Z,5.26
2022-10-09T04:09:45.935Z,5.27
2022-10-09T04:10:45.964Z,5.28
2022-10-09T04:11:46.003Z,5.22
2022-10-09T04:12:46.300Z,5.22
2022-10-09T04:13:46.074Z,5.21
2022-10-09T04:14:46.107Z,5.21
2022-10-09T04:15:46.132Z,5.21
2022-10-09T04:16:46.325Z,5.22
2022-10-09T04:17:46.204Z,5.22
2022-10-09T04:18:46.241Z,5.22
2022-10-09T04:19:46.280Z,5.22
2022-10-09T04:20:46.310Z,5.22
2022-10-09T04:21:46.347Z,5.16
2022-10-09T04:22:46.723Z,5.23
2022-10-09T04:23:46.402Z,5.22
2022-10-09T04:24:46.434Z,5.22
2022-10-09T04:25:46.474Z,5.2
2022-10-09T04:26:46.504Z,5.12
2022-10-09T04:27:46.545Z,5.14
2022-10-09T04:28:46.633Z,5.16
2022-10-09T04:29:46.613Z,5.17
2022-10-09T04:30:46.648Z,5.1
2022-10-09T04:31:46.733Z,5.1
2022-10-09T04:32:47.090Z,5.09
2022-10-09T04:33:46.737Z,5.08
2022-10-09T04:34:46.771Z,5.09
2022-10-09T04:35:46.814Z,5.09
2022-10-09T04:36:46.846Z,5.09
2022-10-09T04:37:46.881Z,5.09
2022-10-09T04:38:46.918Z,5.09
2022-10-09T04:39:46.948Z,5.09
2022-10-09T04:40:46.986Z,5.1
2022-10-09T04:41:47.018Z,5.09
2022-10-09T04:42:47.277Z,5.02
2022-10-09T04:43:47.082Z,5.02
2022-10-09T04:44:47.114Z,5.01
2022-10-09T04:45:47.198Z,5.02
2022-10-09T04:46:47.183Z,5.01
2022-10-09T04:47:47.215Z,5
2022-10-09T04:48:47.243Z,5.01
2022-10-09T04:49:47.271Z,5.01
2022-10-09T04:50:47.331Z,5.01
2022-10-09T04:51:47.342Z,5.01
2022-10-09T04:52:47.604Z,5
2022-10-09T04:53:47.405Z,4.94
2022-10-09T04:54:47.439Z,4.95
2022-10-09T04:55:47.483Z,4.96
2022-10-09T04:56:47.515Z,4.95
2022-10-09T04:57:47.553Z,4.95
2022-10-09T04:58:47.580Z,4.97
2022-10-09T04:59:47.609Z,4.96
2022-10-09T05:00:47.735Z,4.95
2022-10-09T05:01:47.854Z,4.94
2022-10-09T05:02:48.116Z,4.94
2022-10-09T05:03:47.767Z,4.89
2022-10-09T05:04:47.800Z,4.89
2022-10-09T05:05:47.837Z,4.89
2022-10-09T05:06:47.864Z,4.9
2022-10-09T05:07:47.907Z,4.9
2022-10-09T05:08:47.933Z,4.91
2022-10-09T05:09:47.968Z,4.91
2022-10-09T05:10:48.008Z,4.92
2022-10-09T05:11:48.036Z,4.92
2022-10-09T05:12:48.300Z,4.92
2022-10-09T05:13:48.096Z,4.91
2022-10-09T05:14:48.133Z,4.89
2022-10-09T05:15:48.166Z,4.82
2022-10-09T05:17:11.896Z,4.82
2022-10-09T05:17:48.232Z,4.81
2022-10-09T05:18:48.273Z,4.81
2022-10-09T05:19:48.300Z,4.82
2022-10-09T05:20:48.325Z,4.82
2022-10-09T05:21:48.352Z,4.81
2022-10-09T05:22:48.817Z,4.82
2022-10-09T05:23:48.426Z,4.81
2022-10-09T05:24:48.452Z,4.81
2022-10-09T05:25:48.491Z,4.72
2022-10-09T05:26:48.522Z,4.72
2022-10-09T05:27:48.552Z,4.71
2022-10-09T05:28:48.645Z,4.71
2022-10-09T05:29:48.615Z,4.64
2022-10-09T05:30:48.650Z,4.64
2022-10-09T05:31:49.760Z,4.66
2022-10-09T05:32:48.957Z,4.66
2022-10-09T05:33:48.749Z,4.6
2022-10-09T05:34:48.801Z,4.6
2022-10-09T05:35:48.820Z,4.6
2022-10-09T05:36:48.856Z,4.61
2022-10-09T05:37:48.886Z,4.63
2022-10-09T05:38:48.915Z,4.65
2022-10-09T05:39:48.953Z,4.65
2022-10-09T05:40:48.992Z,4.67
2022-10-09T05:41:49.024Z,4.67
2022-10-09T05:42:49.323Z,4.68
2022-10-09T05:43:49.089Z,4.68
2022-10-09T05:44:49.117Z,4.76
2022-10-09T05:45:49.191Z,4.76
2022-10-09T05:46:49.196Z,4.77
2022-10-09T05:47:49.230Z,4.77
2022-10-09T05:48:49.263Z,4.77
2022-10-09T05:49:49.302Z,4.77
2022-10-09T05:50:49.338Z,4.83
2022-10-09T05:51:49.367Z,4.83
2022-10-09T05:52:49.635Z,4.83
2022-10-09T05:53:49.432Z,4.83
2022-10-09T05:54:49.472Z,4.83
2022-10-09T05:55:49.506Z,4.84
2022-10-09T05:56:49.538Z,4.84
2022-10-09T05:57:49.569Z,4.92
2022-10-09T05:58:49.598Z,4.93
2022-10-09T05:59:49.626Z,4.95
2022-10-09T06:00:49.670Z,5.02
2022-10-09T06:01:49.864Z,5.04
2022-10-09T06:02:50.077Z,5.06
2022-10-09T06:03:49.800Z,5.07
2022-10-09T06:04:49.814Z,5.14
2022-10-09T06:05:49.847Z,5.14
2022-10-09T06:06:49.881Z,5.13
2022-10-09T06:07:49.914Z,5.13
2022-10-09T06:08:49.948Z,5.19
2022-10-09T06:09:49.981Z,5.19
2022-10-09T06:10:50.012Z,5.19
2022-10-09T06:11:50.049Z,5.26
2022-10-09T06:12:50.504Z,5.26
2022-10-09T06:13:50.137Z,5.26
2022-10-09T06:14:50.152Z,5.26
2022-10-09T06:15:50.184Z,5.33
2022-10-09T06:16:50.334Z,5.33
2022-10-09T06:17:50.242Z,5.41
2022-10-09T06:18:50.279Z,5.41
2022-10-09T06:19:50.312Z,5.48
2022-10-09T06:20:50.349Z,5.48
2022-10-09T06:21:50.394Z,5.47
2022-10-09T06:22:50.858Z,5.54
2022-10-09T06:23:50.457Z,5.54
2022-10-09T06:24:50.487Z,5.61
2022-10-09T06:25:50.534Z,5.63
2022-10-09T06:26:50.549Z,5.7
2022-10-09T06:27:50.578Z,5.7
2022-10-09T06:28:50.714Z,5.76
2022-10-09T06:29:50.652Z,5.76
2022-10-09T06:30:50.718Z,5.83
2022-10-09T06:31:50.718Z,5.85
2022-10-09T06:32:51.379Z,5.92
2022-10-09T06:33:50.783Z,6.01
2022-10-09T06:34:50.812Z,6.03
2022-10-09T06:35:50.845Z,6.12
2022-10-09T06:36:50.869Z,6.19
2022-10-09T06:37:50.904Z,6.2
2022-10-09T06:38:50.936Z,6.28
2022-10-09T06:39:50.973Z,6.35
2022-10-09T06:40:51.011Z,6.43
2022-10-09T06:41:51.056Z,6.49
2022-10-09T06:42:51.630Z,6.57
2022-10-09T06:43:51.104Z,6.64
2022-10-09T06:44:51.133Z,6.71
2022-10-09T06:45:51.187Z,6.84
2022-10-09T06:46:51.196Z,6.95
2022-10-09T06:47:51.236Z,7.06
2022-10-09T06:48:51.261Z,7.17
2022-10-09T06:49:51.296Z,7.22
2022-10-09T06:50:51.342Z,7.22
2022-10-09T06:51:51.389Z,7.28
2022-10-09T06:52:51.836Z,7.34
2022-10-09T06:53:51.449Z,7.34
2022-10-09T06:54:51.477Z,7.39
2022-10-09T06:55:51.514Z,7.47
2022-10-09T06:56:51.546Z,7.52
2022-10-09T06:57:51.572Z,7.57
2022-10-09T06:58:51.613Z,7.56
2022-10-09T06:59:51.638Z,7.62
2022-10-09T07:00:51.671Z,7.63
2022-10-09T07:01:51.852Z,7.7
2022-10-09T07:02:52.162Z,7.7
2022-10-09T07:03:51.773Z,7.7
2022-10-09T07:04:51.798Z,7.75
2022-10-09T07:05:51.831Z,7.76
2022-10-09T07:06:51.868Z,7.83
2022-10-09T07:07:51.900Z,7.81
2022-10-09T07:08:51.930Z,7.81
2022-10-09T07:09:51.961Z,7.88
2022-10-09T07:10:51.995Z,7.89
2022-10-09T07:11:52.027Z,7.96
2022-10-09T07:12:52.056Z,7.96
2022-10-09T07:13:52.093Z,7.96
2022-10-09T07:14:52.126Z,8.02
2022-10-09T07:15:52.185Z,8.01
2022-10-09T07:16:52.193Z,8
2022-10-09T07:17:52.229Z,8.08
2022-10-09T07:18:52.265Z,8.08
2022-10-09T07:19:52.301Z,8.08
2022-10-09T07:20:52.327Z,8.13
2022-10-09T07:21:52.367Z,8.14
2022-10-09T07:22:52.403Z,8.14
2022-10-09T07:23:52.430Z,8.19
2022-10-09T07:24:52.457Z,8.25
2022-10-09T07:25:52.491Z,8.26
2022-10-09T07:26:52.522Z,8.25
2022-10-09T07:27:52.548Z,8.32
2022-10-09T07:28:52.584Z,8.31
2022-10-09T07:29:52.614Z,8.3
2022-10-09T07:30:52.757Z,8.31
2022-10-09T07:31:52.685Z,8.31
2022-10-09T07:32:52.712Z,8.36
2022-10-09T07:33:52.750Z,8.36
2022-10-09T07:34:52.779Z,8.34
2022-10-09T07:35:52.819Z,8.34
2022-10-09T07:36:52.847Z,8.35
2022-10-09T07:37:52.883Z,8.36
2022-10-09T07:38:52.918Z,8.44
2022-10-09T07:39:52.940Z,8.37
2022-10-09T07:40:52.983Z,8.45
2022-10-09T07:41:53.016Z,8.44
2022-10-09T07:42:53.047Z,8.44
2022-10-09T07:43:53.094Z,8.44
2022-10-09T07:44:53.115Z,8.44
2022-10-09T07:45:53.235Z,8.5
2022-10-09T07:46:53.185Z,8.51
2022-10-09T07:47:53.216Z,8.51
2022-10-09T07:48:53.252Z,8.52
2022-10-09T07:49:53.287Z,8.59
2022-10-09T07:50:53.323Z,8.6
2022-10-09T07:51:53.360Z,8.58
2022-10-09T07:52:53.398Z,8.6
2022-10-09T07:53:53.424Z,8.67
2022-10-09T07:54:53.460Z,8.68
2022-10-09T07:55:53.489Z,8.68
2022-10-09T07:56:53.530Z,8.76
2022-10-09T07:57:53.561Z,8.77
2022-10-09T07:58:53.588Z,8.77
2022-10-09T07:59:53.615Z,8.76
2022-10-09T08:00:53.647Z,8.74
2022-10-09T08:01:53.738Z,8.81
2022-10-09T08:02:53.909Z,8.79
2022-10-09T08:03:53.741Z,8.78
2022-10-09T08:04:53.776Z,8.78
2022-10-09T08:05:53.818Z,8.79
2022-10-09T08:06:53.847Z,8.78
2022-10-09T08:07:53.869Z,8.84
2022-10-09T08:08:53.910Z,8.84
2022-10-09T08:09:53.950Z,8.85
2022-10-09T08:10:53.987Z,8.85
2022-10-09T08:11:54.019Z,8.84
2022-10-09T08:12:54.056Z,8.85
2022-10-09T08:13:54.102Z,8.84
2022-10-09T08:14:54.126Z,8.9
2022-10-09T08:15:54.215Z,8.91
2022-10-09T08:16:54.197Z,8.92
2022-10-09T08:17:54.227Z,8.93
2022-10-09T08:18:54.256Z,8.91
2022-10-09T08:19:54.293Z,8.96
2022-10-09T08:20:54.329Z,8.96
2022-10-09T08:21:54.364Z,8.96
2022-10-09T08:22:54.398Z,8.96
2022-10-09T08:23:54.433Z,9.03
2022-10-09T08:24:54.466Z,9.05
2022-10-09T08:25:54.501Z,9.05
2022-10-09T08:26:54.530Z,9.05
2022-10-09T08:27:54.561Z,9.12
2022-10-09T08:28:54.680Z,9.11
2022-10-09T08:29:54.641Z,9.11
2022-10-09T08:30:54.718Z,9.17
2022-10-09T08:31:54.704Z,9.15
2022-10-09T08:32:54.731Z,9.15
2022-10-09T08:33:54.771Z,9.15
2022-10-09T08:34:54.799Z,9.22
2022-10-09T08:35:54.821Z,9.22
2022-10-09T08:36:54.862Z,9.22
2022-10-09T08:37:54.886Z,9.28
2022-10-09T08:38:54.916Z,9.27
2022-10-09T08:39:54.952Z,9.27
2022-10-09T08:40:58.241Z,9.33
2022-10-09T08:41:55.013Z,9.35
2022-10-09T08:42:55.047Z,9.37
2022-10-09T08:43:55.082Z,9.4
2022-10-09T08:44:55.118Z,9.39
2022-10-09T08:45:55.151Z,9.4
2022-10-09T08:46:55.182Z,9.46
2022-10-09T08:47:55.223Z,9.46
2022-10-09T08:48:55.253Z,9.46
2022-10-09T08:49:55.286Z,9.43
2022-10-09T08:50:55.323Z,9.42
2022-10-09T08:51:55.359Z,9.5
2022-10-09T08:52:56.054Z,9.49
2022-10-09T08:53:55.434Z,9.5
2022-10-09T08:54:55.456Z,9.49
2022-10-09T08:55:55.481Z,9.56
2022-10-09T08:56:55.522Z,9.57
2022-10-09T08:57:55.560Z,9.57
2022-10-09T08:58:55.590Z,9.67
2022-10-09T08:59:55.630Z,9.69
2022-10-09T09:00:55.658Z,9.76
2022-10-09T09:01:55.733Z,9.77
2022-10-09T09:02:55.765Z,9.77
2022-10-09T09:03:55.748Z,9.85
2022-10-09T09:04:55.782Z,9.92
2022-10-09T09:05:55.816Z,9.94
2022-10-09T09:06:55.854Z,9.96
2022-10-09T09:07:55.876Z,10.02
2022-10-09T09:08:55.916Z,10.01
2022-10-09T09:09:55.948Z,10.05
2022-10-09T09:10:55.982Z,10.03
2022-10-09T09:11:56.012Z,10.03
2022-10-09T09:12:56.048Z,10.07
2022-10-09T09:13:56.075Z,10.09
2022-10-09T09:14:56.219Z,10.16
2022-10-09T09:15:56.186Z,10.14
2022-10-09T09:16:56.179Z,10.13
2022-10-09T09:17:56.218Z,10.19
2022-10-09T09:18:56.241Z,10.21
2022-10-09T09:19:56.272Z,10.27
2022-10-09T09:20:56.303Z,10.25
2022-10-09T09:21:56.340Z,10.24
2022-10-09T09:22:56.367Z,10.29
2022-10-09T09:23:56.388Z,10.28
2022-10-09T09:24:56.418Z,10.27
2022-10-09T09:25:56.459Z,10.31
2022-10-09T09:26:56.491Z,10.31
2022-10-09T09:27:56.525Z,10.3
2022-10-09T09:28:56.631Z,10.28
2022-10-09T09:29:56.593Z,10.28
2022-10-09T09:30:56.661Z,10.35
2022-10-09T09:31:56.660Z,10.38
2022-10-09T09:32:56.696Z,10.38
2022-10-09T09:33:56.732Z,10.42
2022-10-09T09:34:56.761Z,10.4
2022-10-09T09:35:56.790Z,10.38
2022-10-09T09:36:56.835Z,10.39
2022-10-09T09:37:56.865Z,10.39
2022-10-09T09:40:36.144Z,10.47
2022-10-09T09:40:56.952Z,10.54
2022-10-09T09:41:56.982Z,10.54
2022-10-09T09:42:57.012Z,10.53
2022-10-09T09:43:57.045Z,10.56
2022-10-09T09:44:57.079Z,10.56
2022-10-09T09:45:57.110Z,10.55
2022-10-09T09:46:57.190Z,10.62
2022-10-09T09:47:57.189Z,10.63
2022-10-09T09:48:57.219Z,10.62
2022-10-09T09:49:57.254Z,10.6
2022-10-09T09:51:16.193Z,10.59
2022-10-09T09:51:57.326Z,10.67
2022-10-09T09:52:57.356Z,10.64
2022-10-09T09:53:57.393Z,10.69
2022-10-09T09:54:57.432Z,10.7
2022-10-09T09:55:57.465Z,10.68
2022-10-09T09:57:13.014Z,10.73
2022-10-09T09:57:57.530Z,10.72
2022-10-09T09:58:57.566Z,10.77
2022-10-09T09:59:57.596Z,10.75
2022-10-09T10:00:57.721Z,10.7
2022-10-09T10:01:57.723Z,10.74
2022-10-09T10:02:57.701Z,10.78
2022-10-09T10:03:57.734Z,10.78
2022-10-09T10:04:57.773Z,10.8
2022-10-09T10:05:57.800Z,10.82
2022-10-09T10:06:57.828Z,10.85
2022-10-09T10:07:57.864Z,10.9
2022-10-09T10:08:57.903Z,10.84
2022-10-09T10:09:57.931Z,10.82
2022-10-09T10:10:57.957Z,10.82
2022-10-09T10:11:57.984Z,10.88
2022-10-09T10:12:58.013Z,10.89
2022-10-09T10:13:58.045Z,10.91
2022-10-09T10:14:58.070Z,10.99
2022-10-09T10:15:58.193Z,10.97
2022-10-09T10:16:58.138Z,10.97
2022-10-09T10:17:58.637Z,11.01
2022-10-09T10:18:58.681Z,10.98
2022-10-09T10:19:58.709Z,10.96
2022-10-09T10:20:58.766Z,11.01
2022-10-09T10:21:58.769Z,11.02
2022-10-09T10:22:58.791Z,11.09
2022-10-09T10:23:58.867Z,11.1
2022-10-09T10:24:58.863Z,11.18
2022-10-09T10:25:58.904Z,11.16
2022-10-09T10:26:58.914Z,11.12
2022-10-09T10:27:58.951Z,11.16
2022-10-09T10:28:58.982Z,11.14
2022-10-09T10:29:59.012Z,11.14
2022-10-09T10:30:59.082Z,11.11
2022-10-09T10:31:59.073Z,11.12
2022-10-09T10:32:59.112Z,11.22
2022-10-09T10:33:59.132Z,11.21
2022-10-09T10:34:59.181Z,11.22
2022-10-09T10:35:59.208Z,11.18
2022-10-09T10:37:02.583Z,11.18
2022-10-09T10:37:59.265Z,11.17
2022-10-09T10:38:59.297Z,11.16
2022-10-09T10:39:59.333Z,11.17
2022-10-09T10:40:59.365Z,11.14
2022-10-09T10:41:59.401Z,11.16
2022-10-09T10:42:59.500Z,11.17
2022-10-09T10:43:59.469Z,11.15
2022-10-09T10:44:59.500Z,11.14
2022-10-09T10:45:59.535Z,11.15
2022-10-09T10:46:59.633Z,11.15
2022-10-09T10:47:59.615Z,11.16
2022-10-09T10:48:59.636Z,11.14
2022-10-09T10:49:59.671Z,11.13
2022-10-09T10:50:59.705Z,11.09
2022-10-09T10:51:59.745Z,11.13
2022-10-09T10:52:59.783Z,11.11
2022-10-09T10:53:59.824Z,11.11
2022-10-09T10:54:59.840Z,11.16
2022-10-09T10:56:04.863Z,11.16
2022-10-09T10:56:59.907Z,11.17
2022-10-09T10:57:59.953Z,11.12
2022-10-09T10:58:59.958Z,11.2
2022-10-09T10:59:59.988Z,11.19
2022-10-09T11:01:00.128Z,11.25
2022-10-09T11:02:00.067Z,11.23
2022-10-09T11:03:00.167Z,11.27
2022-10-09T11:04:00.140Z,11.2
2022-10-09T11:05:00.162Z,11.29
2022-10-09T11:06:00.189Z,11.34
2022-10-09T11:07:00.226Z,11.26
2022-10-09T11:08:00.461Z,11.24
2022-10-09T11:09:00.285Z,11.26
2022-10-09T11:10:00.328Z,11.22
2022-10-09T11:11:00.373Z,11.35
2022-10-09T11:12:00.398Z,11.32
2022-10-09T11:13:00.825Z,11.36
2022-10-09T11:14:00.466Z,11.36
2022-10-09T11:15:00.493Z,11.26
2022-10-09T11:16:00.581Z,11.32
2022-10-09T11:17:00.562Z,11.28
2022-10-09T11:18:00.619Z,11.36
2022-10-09T11:19:00.619Z,11.37
2022-10-09T11:20:00.651Z,11.39
2022-10-09T11:21:00.690Z,11.41
2022-10-09T11:22:00.721Z,11.45
2022-10-09T11:23:00.776Z,11.42
2022-10-09T11:24:00.785Z,11.44
2022-10-09T11:25:00.824Z,11.41
2022-10-09T11:26:00.852Z,11.4
2022-10-09T11:27:03.223Z,11.39
2022-10-09T11:28:00.921Z,11.39
2022-10-09T11:29:00.950Z,11.38
2022-10-09T11:30:00.985Z,11.35
2022-10-09T11:31:01.022Z,11.33
2022-10-09T11:32:01.094Z,11.34
2022-10-09T11:33:01.086Z,11.35
2022-10-09T11:34:01.114Z,11.36
2022-10-09T11:35:01.149Z,11.38
2022-10-09T11:36:01.183Z,11.38
2022-10-09T11:37:01.218Z,11.41
2022-10-09T11:38:01.251Z,11.38
2022-10-09T11:39:01.317Z,11.36
2022-10-09T11:40:01.329Z,11.46
2022-10-09T11:41:03.854Z,11.38
2022-10-09T11:42:01.392Z,11.31
2022-10-09T11:43:01.426Z,11.36
2022-10-09T11:44:01.479Z,11.33
2022-10-09T11:45:01.514Z,11.34
2022-10-09T11:46:01.569Z,11.51
2022-10-09T11:47:02.239Z,11.57
2022-10-09T11:48:01.574Z,11.57
2022-10-09T11:49:01.631Z,11.5
2022-10-09T11:50:01.666Z,11.48
2022-10-09T11:51:01.672Z,11.45
2022-10-09T11:52:01.710Z,11.44
2022-10-09T11:53:01.746Z,11.47
2022-10-09T11:54:01.801Z,11.51
2022-10-09T11:55:01.805Z,11.48
2022-10-09T11:56:01.837Z,11.59
2022-10-09T11:57:05.147Z,11.69
2022-10-09T11:58:01.900Z,11.67
2022-10-09T11:59:01.961Z,11.67
2022-10-09T12:00:01.968Z,11.68
2022-10-09T12:01:02.109Z,11.65
2022-10-09T12:02:02.128Z,11.71
2022-10-09T12:03:02.074Z,11.81
2022-10-09T12:04:02.132Z,11.92
2022-10-09T12:05:02.142Z,11.86
2022-10-09T12:06:02.176Z,11.86
2022-10-09T12:07:02.214Z,11.85
2022-10-09T12:08:02.250Z,11.93
2022-10-09T12:09:02.303Z,11.95
2022-10-09T12:10:02.312Z,11.88
2022-10-09T12:11:02.352Z,11.66
2022-10-09T12:12:02.388Z,11.74
2022-10-09T12:13:02.412Z,11.84
2022-10-09T12:14:02.445Z,11.8
2022-10-09T12:15:02.474Z,11.82
2022-10-09T12:16:02.506Z,11.83
2022-10-09T12:17:02.649Z,11.83
2022-10-09T12:18:02.562Z,11.78
2022-10-09T12:19:02.593Z,11.62
2022-10-09T12:20:02.646Z,11.63
2022-10-09T12:21:02.659Z,11.62
2022-10-09T12:22:02.712Z,11.59
2022-10-09T12:23:25.609Z,11.58
2022-10-09T12:24:02.760Z,11.7
2022-10-09T12:25:02.818Z,11.8
2022-10-09T12:26:02.839Z,11.62
2022-10-09T12:27:02.861Z,11.59
2022-10-09T12:28:02.963Z,11.74
2022-10-09T12:29:02.917Z,11.54
2022-10-09T12:30:02.972Z,11.57
2022-10-09T12:31:03.001Z,11.69
2022-10-09T12:32:03.006Z,11.68
2022-10-09T12:33:03.047Z,11.72
2022-10-09T12:34:03.069Z,11.66
2022-10-09T12:35:03.101Z,11.71
2022-10-09T12:36:03.134Z,11.74
2022-10-09T12:37:03.163Z,11.53
2022-10-09T12:38:03.188Z,11.52
2022-10-09T12:39:03.223Z,11.58
2022-10-09T12:40:03.282Z,11.65
2022-10-09T12:41:03.296Z,11.73
2022-10-09T12:42:03.332Z,11.66
2022-10-09T12:43:03.373Z,11.57
2022-10-09T12:44:03.404Z,11.59
2022-10-09T12:45:03.442Z,11.39
2022-10-09T12:46:03.526Z,11.48
2022-10-09T12:47:03.511Z,11.37
2022-10-09T12:48:03.547Z,11.4
2022-10-09T12:49:03.591Z,11.41
2022-10-09T12:50:03.622Z,11.39
2022-10-09T12:51:03.650Z,11.46
2022-10-09T12:52:03.692Z,11.47
2022-10-09T12:53:03.740Z,11.55
2022-10-09T12:54:03.757Z,11.67
2022-10-09T12:55:03.786Z,11.56
2022-10-09T12:56:03.823Z,11.55
2022-10-09T12:57:03.877Z,11.53
2022-10-09T12:58:03.917Z,11.57
2022-10-09T12:59:03.928Z,11.77
2022-10-09T13:00:03.963Z,11.79
2022-10-09T13:01:04.142Z,11.76
2022-10-09T13:02:04.195Z,11.73
2022-10-09T13:03:04.083Z,11.67
2022-10-09T13:04:04.097Z,11.61
2022-10-09T13:05:04.126Z,11.62
2022-10-09T13:06:04.167Z,11.55
2022-10-09T13:07:04.208Z,11.58
2022-10-09T13:08:04.241Z,11.58
2022-10-09T13:09:04.276Z,11.53
2022-10-09T13:10:04.303Z,11.55
2022-10-09T13:11:04.339Z,11.6
2022-10-09T13:12:04.375Z,11.68
2022-10-09T13:13:04.485Z,11.72
2022-10-09T13:14:04.440Z,11.73
2022-10-09T13:15:04.470Z,11.58